sensor_id;sensor_type;location;lat;lon;timestamp;pressure;altitude;pressure_sealevel;temperature;humidity
15646;BME280;7922;43.622;1.476;2024-03-02T00:00:41;99250.03;;;8.47;85.33
15646;BME280;7922;43.622;1.476;2024-03-02T00:03:07;99167.94;;;7.94;85.39
15646;BME280;7922;43.622;1.476;2024-03-02T00:05:32;99230.28;;;8.35;85.91
15646;BME280;7922;43.622;1.476;2024-03-02T00:07:58;99221.75;;;8.30;86.24
15646;BME280;7922;43.622;1.476;2024-03-02T00:12:59;99267.50;;;8.49;86.40
15646;BME280;7922;43.622;1.476;2024-03-02T00:15:46;99292.66;;;8.58;86.36
15646;BME280;7922;43.622;1.476;2024-03-02T00:18:18;99261.09;;;8.34;86.91
15646;BME280;7922;43.622;1.476;2024-03-02T00:20:45;99197.66;;;7.98;86.92
15646;BME280;7922;43.622;1.476;2024-03-02T00:23:15;99126.63;;;7.56;86.85
15646;BME280;7922;43.622;1.476;2024-03-02T00:25:41;99296.13;;;8.58;87.53
15646;BME280;7922;43.622;1.476;2024-03-02T00:30:58;99162.28;;;7.83;88.09
15646;BME280;7922;43.622;1.476;2024-03-02T00:33:27;99147.59;;;7.78;87.78
15646;BME280;7922;43.622;1.476;2024-03-02T00:35:53;99189.41;;;8.06;87.54
15646;BME280;7922;43.622;1.476;2024-03-02T00:38:19;99216.56;;;8.08;88.24
15646;BME280;7922;43.622;1.476;2024-03-02T00:40:44;99174.28;;;7.90;88.08
15646;BME280;7922;43.622;1.476;2024-03-02T00:43:42;99291.34;;;8.66;88.43
15646;BME280;7922;43.622;1.476;2024-03-02T00:46:07;99253.75;;;8.42;88.59
15646;BME280;7922;43.622;1.476;2024-03-02T00:48:33;99132.06;;;7.71;88.42
15646;BME280;7922;43.622;1.476;2024-03-02T00:50:58;99284.50;;;8.62;88.72
15646;BME280;7922;43.622;1.476;2024-03-02T00:53:26;99268.22;;;8.53;89.38
15646;BME280;7922;43.622;1.476;2024-03-02T00:55:52;99234.00;;;8.31;88.42
15646;BME280;7922;43.622;1.476;2024-03-02T00:58:17;99253.44;;;8.49;88.72
15646;BME280;7922;43.622;1.476;2024-03-02T01:00:42;99247.06;;;8.54;88.25
15646;BME280;7922;43.622;1.476;2024-03-02T01:03:08;99246.97;;;8.56;88.35
15646;BME280;7922;43.622;1.476;2024-03-02T01:05:33;99210.88;;;8.37;88.17
15646;BME280;7922;43.622;1.476;2024-03-02T01:07:59;99120.69;;;7.90;87.93
15646;BME280;7922;43.622;1.476;2024-03-02T01:10:24;99086.31;;;7.72;86.83
15646;BME280;7922;43.622;1.476;2024-03-02T01:12:49;99189.16;;;8.31;87.26
15646;BME280;7922;43.622;1.476;2024-03-02T01:15:15;99159.72;;;8.21;87.64
15646;BME280;7922;43.622;1.476;2024-03-02T01:17:40;99169.97;;;8.27;87.96
15646;BME280;7922;43.622;1.476;2024-03-02T01:20:08;99140.53;;;8.17;88.48
15646;BME280;7922;43.622;1.476;2024-03-02T01:22:33;99192.03;;;8.45;88.96
15646;BME280;7922;43.622;1.476;2024-03-02T01:24:59;99196.47;;;8.44;88.58
15646;BME280;7922;43.622;1.476;2024-03-02T01:27:24;99216.81;;;8.61;88.39
15646;BME280;7922;43.622;1.476;2024-03-02T01:29:49;99194.31;;;8.53;88.52
15646;BME280;7922;43.622;1.476;2024-03-02T01:32:14;99196.81;;;8.56;88.83
15646;BME280;7922;43.622;1.476;2024-03-02T01:34:40;99142.16;;;8.20;89.57
15646;BME280;7922;43.622;1.476;2024-03-02T01:37:05;99113.84;;;8.05;88.47
15646;BME280;7922;43.622;1.476;2024-03-02T01:39:30;99164.94;;;8.41;88.08
15646;BME280;7922;43.622;1.476;2024-03-02T01:41:56;99171.78;;;8.46;88.25
15646;BME280;7922;43.622;1.476;2024-03-02T01:44:21;99172.78;;;8.43;87.79
15646;BME280;7922;43.622;1.476;2024-03-02T01:46:46;99165.88;;;8.40;87.97
15646;BME280;7922;43.622;1.476;2024-03-02T01:49:12;99179.41;;;8.52;87.83
15646;BME280;7922;43.622;1.476;2024-03-02T01:51:37;99115.13;;;8.15;87.84
15646;BME280;7922;43.622;1.476;2024-03-02T01:54:02;99188.75;;;8.59;87.60
15646;BME280;7922;43.622;1.476;2024-03-02T01:56:28;99205.50;;;8.77;87.51
15646;BME280;7922;43.622;1.476;2024-03-02T01:58:53;99053.06;;;7.89;87.34
15646;BME280;7922;43.622;1.476;2024-03-02T02:01:18;99123.50;;;8.25;87.23
15646;BME280;7922;43.622;1.476;2024-03-02T02:03:44;99156.25;;;8.39;87.60
15646;BME280;7922;43.622;1.476;2024-03-02T02:06:09;99176.78;;;8.52;88.25
15646;BME280;7922;43.622;1.476;2024-03-02T02:08:37;99207.81;;;8.65;88.45
15646;BME280;7922;43.622;1.476;2024-03-02T02:11:02;99144.59;;;8.25;88.67
15646;BME280;7922;43.622;1.476;2024-03-02T02:13:27;99049.72;;;7.66;88.79
15646;BME280;7922;43.622;1.476;2024-03-02T02:15:53;99183.94;;;8.50;88.78
15646;BME280;7922;43.622;1.476;2024-03-02T02:18:18;99104.50;;;7.97;89.10
15646;BME280;7922;43.622;1.476;2024-03-02T02:20:43;99183.72;;;8.34;89.80
15646;BME280;7922;43.622;1.476;2024-03-02T02:23:09;99163.59;;;8.12;90.27
15646;BME280;7922;43.622;1.476;2024-03-02T02:25:34;99128.59;;;7.90;90.50
15646;BME280;7922;43.622;1.476;2024-03-02T02:27:59;99114.31;;;7.75;90.86
15646;BME280;7922;43.622;1.476;2024-03-02T02:30:25;99177.09;;;8.06;91.28
15646;BME280;7922;43.622;1.476;2024-03-02T02:32:51;99112.88;;;7.68;91.85
15646;BME280;7922;43.622;1.476;2024-03-02T02:35:16;99052.78;;;7.37;91.78
15646;BME280;7922;43.622;1.476;2024-03-02T02:37:42;99130.44;;;7.88;91.97
15646;BME280;7922;43.622;1.476;2024-03-02T02:40:08;99157.47;;;8.12;91.79
15646;BME280;7922;43.622;1.476;2024-03-02T02:42:34;99097.31;;;7.82;91.94
15646;BME280;7922;43.622;1.476;2024-03-02T02:44:59;99068.28;;;7.63;92.05
15646;BME280;7922;43.622;1.476;2024-03-02T02:47:25;99104.56;;;7.77;92.36
15646;BME280;7922;43.622;1.476;2024-03-02T02:49:51;99091.34;;;7.58;92.46
15646;BME280;7922;43.622;1.476;2024-03-02T02:52:16;99064.03;;;7.40;93.05
15646;BME280;7922;43.622;1.476;2024-03-02T02:54:41;99122.94;;;7.79;93.33
15646;BME280;7922;43.622;1.476;2024-03-02T02:57:06;98995.47;;;7.03;93.41
15646;BME280;7922;43.622;1.476;2024-03-02T02:59:32;98952.31;;;6.86;93.15
15646;BME280;7922;43.622;1.476;2024-03-02T03:01:57;99073.47;;;7.65;93.23
15646;BME280;7922;43.622;1.476;2024-03-02T03:04:22;98975.13;;;7.06;92.83
15646;BME280;7922;43.622;1.476;2024-03-02T03:06:49;99003.34;;;7.23;93.15
15646;BME280;7922;43.622;1.476;2024-03-02T03:09:14;99070.22;;;7.60;93.17
15646;BME280;7922;43.622;1.476;2024-03-02T03:11:39;99066.13;;;7.53;93.07
15646;BME280;7922;43.622;1.476;2024-03-02T03:14:05;99057.00;;;7.41;93.54
15646;BME280;7922;43.622;1.476;2024-03-02T03:16:30;99079.94;;;7.58;93.62
15646;BME280;7922;43.622;1.476;2024-03-02T03:18:55;98928.69;;;6.64;93.36
15646;BME280;7922;43.622;1.476;2024-03-02T03:21:21;98957.34;;;6.72;94.05
15646;BME280;7922;43.622;1.476;2024-03-02T03:23:46;98988.13;;;6.90;94.10
15646;BME280;7922;43.622;1.476;2024-03-02T03:26:11;99007.72;;;7.04;94.08
15646;BME280;7922;43.622;1.476;2024-03-02T03:28:36;99006.13;;;6.99;93.86
15646;BME280;7922;43.622;1.476;2024-03-02T03:31:02;99027.97;;;7.22;93.93
15646;BME280;7922;43.622;1.476;2024-03-02T03:33:27;98989.69;;;6.94;93.90
15646;BME280;7922;43.622;1.476;2024-03-02T03:35:52;98984.69;;;6.88;93.75
15646;BME280;7922;43.622;1.476;2024-03-02T03:38:18;99045.56;;;7.21;94.28
15646;BME280;7922;43.622;1.476;2024-03-02T03:40:43;98943.84;;;6.59;94.25
15646;BME280;7922;43.622;1.476;2024-03-02T03:43:08;98977.22;;;6.79;94.71
15646;BME280;7922;43.622;1.476;2024-03-02T03:45:34;98978.91;;;6.80;95.03
15646;BME280;7922;43.622;1.476;2024-03-02T03:47:59;98931.88;;;6.52;94.67
15646;BME280;7922;43.622;1.476;2024-03-02T03:50:24;98960.09;;;6.69;94.82
15646;BME280;7922;43.622;1.476;2024-03-02T03:52:49;98981.41;;;6.83;94.58
15646;BME280;7922;43.622;1.476;2024-03-02T03:55:15;98966.97;;;6.71;95.31
15646;BME280;7922;43.622;1.476;2024-03-02T03:57:40;98874.41;;;6.22;95.53
15646;BME280;7922;43.622;1.476;2024-03-02T04:00:06;98934.13;;;6.61;95.12
15646;BME280;7922;43.622;1.476;2024-03-02T04:02:31;98893.13;;;6.35;95.44
15646;BME280;7922;43.622;1.476;2024-03-02T04:04:57;98899.78;;;6.44;95.48
15646;BME280;7922;43.622;1.476;2024-03-02T04:07:22;98951.00;;;6.76;95.26
15646;BME280;7922;43.622;1.476;2024-03-02T04:09:47;98972.00;;;6.78;95.51
15646;BME280;7922;43.622;1.476;2024-03-02T04:12:12;98956.44;;;6.71;95.38
15646;BME280;7922;43.622;1.476;2024-03-02T04:14:38;98954.38;;;6.80;96.00
15646;BME280;7922;43.622;1.476;2024-03-02T04:17:03;98956.16;;;6.79;96.51
15646;BME280;7922;43.622;1.476;2024-03-02T04:19:28;98961.13;;;6.85;95.89
15646;BME280;7922;43.622;1.476;2024-03-02T04:21:54;98956.66;;;6.87;95.89
15646;BME280;7922;43.622;1.476;2024-03-02T04:24:19;98993.69;;;7.03;95.84
15646;BME280;7922;43.622;1.476;2024-03-02T04:26:44;98864.41;;;6.31;95.37
15646;BME280;7922;43.622;1.476;2024-03-02T04:29:10;98934.75;;;6.66;95.69
15646;BME280;7922;43.622;1.476;2024-03-02T04:31:35;98865.25;;;6.31;95.59
15646;BME280;7922;43.622;1.476;2024-03-02T04:34:00;98976.78;;;7.09;95.93
15646;BME280;7922;43.622;1.476;2024-03-02T04:36:25;98917.88;;;6.72;95.48
15646;BME280;7922;43.622;1.476;2024-03-02T04:38:51;98876.75;;;6.49;95.65
15646;BME280;7922;43.622;1.476;2024-03-02T04:41:17;98882.13;;;6.46;95.46
15646;BME280;7922;43.622;1.476;2024-03-02T04:43:42;98934.41;;;6.74;95.52
15646;BME280;7922;43.622;1.476;2024-03-02T04:46:07;98950.25;;;6.93;95.63
15646;BME280;7922;43.622;1.476;2024-03-02T04:48:33;98938.28;;;6.86;95.47
15646;BME280;7922;43.622;1.476;2024-03-02T04:50:59;98896.13;;;6.67;95.70
15646;BME280;7922;43.622;1.476;2024-03-02T04:53:24;98916.38;;;6.85;95.00
15646;BME280;7922;43.622;1.476;2024-03-02T04:55:49;98929.72;;;7.01;94.72
15646;BME280;7922;43.622;1.476;2024-03-02T04:58:14;98925.44;;;6.98;94.58
15646;BME280;7922;43.622;1.476;2024-03-02T05:00:40;98926.56;;;6.93;94.48
15646;BME280;7922;43.622;1.476;2024-03-02T05:03:05;98904.28;;;6.81;94.67
15646;BME280;7922;43.622;1.476;2024-03-02T05:05:30;98939.19;;;7.05;94.69
15646;BME280;7922;43.622;1.476;2024-03-02T05:07:56;98846.31;;;6.43;94.77
15646;BME280;7922;43.622;1.476;2024-03-02T05:10:21;98781.06;;;6.12;95.10
15646;BME280;7922;43.622;1.476;2024-03-02T05:12:46;98904.78;;;6.89;94.52
15646;BME280;7922;43.622;1.476;2024-03-02T05:15:13;98936.34;;;7.10;94.72
15646;BME280;7922;43.622;1.476;2024-03-02T05:17:39;98937.28;;;7.09;94.38
15646;BME280;7922;43.622;1.476;2024-03-02T05:20:08;98733.78;;;5.90;94.91
15646;BME280;7922;43.622;1.476;2024-03-02T05:22:51;98919.19;;;7.01;94.92
15646;BME280;7922;43.622;1.476;2024-03-02T05:25:16;98924.50;;;6.99;94.96
15646;BME280;7922;43.622;1.476;2024-03-02T05:27:41;98919.25;;;6.99;94.92
15646;BME280;7922;43.622;1.476;2024-03-02T05:30:07;98874.03;;;6.71;95.07
15646;BME280;7922;43.622;1.476;2024-03-02T05:32:33;98848.19;;;6.60;95.44
15646;BME280;7922;43.622;1.476;2024-03-02T05:34:59;98909.56;;;7.00;94.89
15646;BME280;7922;43.622;1.476;2024-03-02T05:37:24;98853.09;;;6.68;94.84
15646;BME280;7922;43.622;1.476;2024-03-02T05:39:49;98891.94;;;7.02;94.86
15646;BME280;7922;43.622;1.476;2024-03-02T05:42:14;98883.72;;;6.89;95.04
15646;BME280;7922;43.622;1.476;2024-03-02T05:44:40;98868.41;;;6.79;95.28
15646;BME280;7922;43.622;1.476;2024-03-02T05:47:05;98786.94;;;6.38;95.46
15646;BME280;7922;43.622;1.476;2024-03-02T05:49:30;98755.69;;;6.11;94.91
15646;BME280;7922;43.622;1.476;2024-03-02T05:51:56;98888.81;;;6.94;95.35
15646;BME280;7922;43.622;1.476;2024-03-02T05:54:21;98844.56;;;6.63;95.17
15646;BME280;7922;43.622;1.476;2024-03-02T05:56:47;98725.34;;;6.04;94.86
15646;BME280;7922;43.622;1.476;2024-03-02T05:59:12;98768.66;;;6.35;95.15
15646;BME280;7922;43.622;1.476;2024-03-02T06:01:38;98703.84;;;5.94;94.93
15646;BME280;7922;43.622;1.476;2024-03-02T06:04:04;98870.22;;;6.97;94.52
15646;BME280;7922;43.622;1.476;2024-03-02T06:06:29;98803.53;;;6.59;95.14
15646;BME280;7922;43.622;1.476;2024-03-02T06:08:54;98691.66;;;5.93;94.86
15646;BME280;7922;43.622;1.476;2024-03-02T06:11:20;98826.47;;;6.75;95.19
15646;BME280;7922;43.622;1.476;2024-03-02T06:13:45;98761.34;;;6.41;95.42
15646;BME280;7922;43.622;1.476;2024-03-02T06:16:10;98770.81;;;6.45;95.26
15646;BME280;7922;43.622;1.476;2024-03-02T06:18:36;98807.16;;;6.75;94.92
15646;BME280;7922;43.622;1.476;2024-03-02T06:21:01;98770.09;;;6.61;95.23
15646;BME280;7922;43.622;1.476;2024-03-02T06:23:27;98739.53;;;6.39;94.77
15646;BME280;7922;43.622;1.476;2024-03-02T06:25:52;98798.28;;;6.78;95.17
15646;BME280;7922;43.622;1.476;2024-03-02T06:28:18;98701.91;;;6.18;95.31
15646;BME280;7922;43.622;1.476;2024-03-02T06:30:43;98776.97;;;6.65;95.16
15646;BME280;7922;43.622;1.476;2024-03-02T06:33:09;98775.19;;;6.65;95.17
15646;BME280;7922;43.622;1.476;2024-03-02T06:35:34;98735.53;;;6.49;94.88
15646;BME280;7922;43.622;1.476;2024-03-02T06:37:59;98732.41;;;6.60;94.98
15646;BME280;7922;43.622;1.476;2024-03-02T06:40:25;98617.72;;;5.80;95.25
15646;BME280;7922;43.622;1.476;2024-03-02T06:42:51;98789.81;;;6.90;95.73
15646;BME280;7922;43.622;1.476;2024-03-02T06:45:16;98732.38;;;6.62;95.63
15646;BME280;7922;43.622;1.476;2024-03-02T06:47:42;98656.44;;;6.16;95.09
15646;BME280;7922;43.622;1.476;2024-03-02T06:50:07;98784.34;;;6.94;95.41
15646;BME280;7922;43.622;1.476;2024-03-02T06:52:33;98739.19;;;6.66;95.00
15646;BME280;7922;43.622;1.476;2024-03-02T06:54:58;98783.75;;;7.07;94.83
15646;BME280;7922;43.622;1.476;2024-03-02T06:57:23;98749.44;;;6.91;94.52
15646;BME280;7922;43.622;1.476;2024-03-02T06:59:49;98721.75;;;6.82;94.22
15646;BME280;7922;43.622;1.476;2024-03-02T07:02:14;98589.09;;;6.14;94.21
15646;BME280;7922;43.622;1.476;2024-03-02T07:04:39;98662.22;;;6.61;94.40
15646;BME280;7922;43.622;1.476;2024-03-02T07:07:04;98637.94;;;6.56;93.48
15646;BME280;7922;43.622;1.476;2024-03-02T07:09:30;98719.44;;;7.12;92.98
15646;BME280;7922;43.622;1.476;2024-03-02T07:11:55;98725.78;;;7.26;93.10
15646;BME280;7922;43.622;1.476;2024-03-02T07:14:20;98718.28;;;7.35;91.90
15646;BME280;7922;43.622;1.476;2024-03-02T07:16:46;98773.72;;;7.68;91.49
15646;BME280;7922;43.622;1.476;2024-03-02T07:19:11;98727.34;;;7.47;91.50
15646;BME280;7922;43.622;1.476;2024-03-02T07:21:36;98689.22;;;7.37;91.35
15646;BME280;7922;43.622;1.476;2024-03-02T07:24:01;98703.19;;;7.56;90.93
15646;BME280;7922;43.622;1.476;2024-03-02T07:26:27;98616.19;;;7.06;90.83
15646;BME280;7922;43.622;1.476;2024-03-02T07:28:52;98640.19;;;7.17;90.89
15646;BME280;7922;43.622;1.476;2024-03-02T07:31:17;98723.94;;;7.62;91.22
15646;BME280;7922;43.622;1.476;2024-03-02T07:33:46;98718.13;;;7.73;91.06
15646;BME280;7922;43.622;1.476;2024-03-02T07:36:11;98686.34;;;7.59;90.67
15646;BME280;7922;43.622;1.476;2024-03-02T07:38:37;98619.03;;;7.36;90.14
15646;BME280;7922;43.622;1.476;2024-03-02T07:41:02;98700.66;;;7.88;89.99
15646;BME280;7922;43.622;1.476;2024-03-02T07:43:28;98719.38;;;8.16;90.13
15646;BME280;7922;43.622;1.476;2024-03-02T07:45:53;98676.56;;;7.95;90.25
15646;BME280;7922;43.622;1.476;2024-03-02T07:48:18;98656.38;;;7.94;89.83
15646;BME280;7922;43.622;1.476;2024-03-02T07:50:44;98670.81;;;8.20;88.62
15646;BME280;7922;43.622;1.476;2024-03-02T07:53:09;98660.28;;;8.36;87.54
15646;BME280;7922;43.622;1.476;2024-03-02T07:55:34;98684.84;;;8.54;86.34
15646;BME280;7922;43.622;1.476;2024-03-02T07:58:00;98652.63;;;8.32;86.71
15646;BME280;7922;43.622;1.476;2024-03-02T08:00:26;98649.81;;;8.19;87.52
15646;BME280;7922;43.622;1.476;2024-03-02T08:02:51;98627.44;;;8.26;86.90
15646;BME280;7922;43.622;1.476;2024-03-02T08:05:17;98619.47;;;8.43;86.41
15646;BME280;7922;43.622;1.476;2024-03-02T08:07:44;98696.31;;;9.16;85.20
15646;BME280;7922;43.622;1.476;2024-03-02T08:10:10;98644.47;;;8.84;84.39
15646;BME280;7922;43.622;1.476;2024-03-02T08:12:35;98661.56;;;8.92;85.10
15646;BME280;7922;43.622;1.476;2024-03-02T08:15:00;98681.69;;;9.41;83.91
15646;BME280;7922;43.622;1.476;2024-03-02T08:17:26;98652.81;;;9.52;82.61
15646;BME280;7922;43.622;1.476;2024-03-02T08:19:51;98612.78;;;9.44;81.33
15646;BME280;7922;43.622;1.476;2024-03-02T08:22:17;98667.34;;;10.04;81.57
15646;BME280;7922;43.622;1.476;2024-03-02T08:24:42;98625.94;;;9.88;81.20
15646;BME280;7922;43.622;1.476;2024-03-02T08:27:07;98677.63;;;10.23;80.35
15646;BME280;7922;43.622;1.476;2024-03-02T08:29:33;98604.69;;;10.04;79.24
15646;BME280;7922;43.622;1.476;2024-03-02T08:31:58;98665.16;;;10.53;78.05
15646;BME280;7922;43.622;1.476;2024-03-02T08:34:23;98568.31;;;9.94;77.21
15646;BME280;7922;43.622;1.476;2024-03-02T08:36:49;98686.44;;;10.52;77.38
15646;BME280;7922;43.622;1.476;2024-03-02T08:39:14;98633.91;;;10.31;77.28
15646;BME280;7922;43.622;1.476;2024-03-02T08:41:39;98648.78;;;10.61;77.01
15646;BME280;7922;43.622;1.476;2024-03-02T08:44:05;98644.88;;;10.67;76.31
15646;BME280;7922;43.622;1.476;2024-03-02T08:46:30;98659.84;;;10.95;75.14
15646;BME280;7922;43.622;1.476;2024-03-02T08:48:55;98618.53;;;10.78;75.16
15646;BME280;7922;43.622;1.476;2024-03-02T08:51:21;98582.50;;;10.48;75.48
15646;BME280;7922;43.622;1.476;2024-03-02T08:53:46;98604.31;;;10.66;76.21
15646;BME280;7922;43.622;1.476;2024-03-02T08:56:11;98626.59;;;10.76;75.80
15646;BME280;7922;43.622;1.476;2024-03-02T08:58:37;98635.03;;;10.96;76.18
15646;BME280;7922;43.622;1.476;2024-03-02T09:01:02;98625.00;;;11.01;76.02
15646;BME280;7922;43.622;1.476;2024-03-02T09:03:27;98630.91;;;10.92;75.57
15646;BME280;7922;43.622;1.476;2024-03-02T09:05:53;98516.19;;;10.23;76.15
15646;BME280;7922;43.622;1.476;2024-03-02T09:08:18;98620.50;;;10.89;76.28
15646;BME280;7922;43.622;1.476;2024-03-02T09:10:43;98547.56;;;10.43;76.27
15646;BME280;7922;43.622;1.476;2024-03-02T09:13:09;98510.75;;;10.26;76.99
15646;BME280;7922;43.622;1.476;2024-03-02T09:15:34;98553.91;;;10.68;76.49
15646;BME280;7922;43.622;1.476;2024-03-02T09:17:59;98556.81;;;10.90;75.90
15646;BME280;7922;43.622;1.476;2024-03-02T09:20:25;98594.34;;;11.49;74.86
15646;BME280;7922;43.622;1.476;2024-03-02T09:22:50;98559.22;;;11.20;76.02
15646;BME280;7922;43.622;1.476;2024-03-02T09:25:15;98546.59;;;11.24;75.62
15646;BME280;7922;43.622;1.476;2024-03-02T09:27:41;98548.00;;;11.29;75.71
15646;BME280;7922;43.622;1.476;2024-03-02T09:30:09;98569.94;;;11.44;75.58
15646;BME280;7922;43.622;1.476;2024-03-02T09:32:35;98555.09;;;11.42;75.38
15646;BME280;7922;43.622;1.476;2024-03-02T09:35:00;98583.94;;;11.72;75.29
15646;BME280;7922;43.622;1.476;2024-03-02T09:37:25;98533.66;;;11.57;74.95
15646;BME280;7922;43.622;1.476;2024-03-02T09:39:51;98537.16;;;11.58;75.14
15646;BME280;7922;43.622;1.476;2024-03-02T09:42:16;98568.78;;;11.48;75.99
15646;BME280;7922;43.622;1.476;2024-03-02T09:44:42;98503.75;;;11.04;76.69
15646;BME280;7922;43.622;1.476;2024-03-02T09:47:07;98526.84;;;11.02;77.38
15646;BME280;7922;43.622;1.476;2024-03-02T09:49:33;98547.00;;;11.05;77.78
15646;BME280;7922;43.622;1.476;2024-03-02T09:51:58;98560.31;;;10.91;78.63
15646;BME280;7922;43.622;1.476;2024-03-02T09:54:23;98456.09;;;10.52;79.25
15646;BME280;7922;43.622;1.476;2024-03-02T09:56:50;98540.75;;;11.06;79.21
15646;BME280;7922;43.622;1.476;2024-03-02T09:59:15;98483.78;;;10.60;79.45
15646;BME280;7922;43.622;1.476;2024-03-02T10:01:55;98503.31;;;10.98;79.46
15646;BME280;7922;43.622;1.476;2024-03-02T10:04:21;98538.66;;;11.37;79.08
15646;BME280;7922;43.622;1.476;2024-03-02T10:06:46;98416.38;;;10.52;78.68
15646;BME280;7922;43.622;1.476;2024-03-02T10:09:26;98535.66;;;11.28;78.72
15646;BME280;7922;43.622;1.476;2024-03-02T10:11:52;98510.44;;;11.10;78.84
15646;BME280;7922;43.622;1.476;2024-03-02T10:14:17;98456.97;;;10.78;79.31
15646;BME280;7922;43.622;1.476;2024-03-02T10:16:44;98420.22;;;10.60;79.81
15646;BME280;7922;43.622;1.476;2024-03-02T10:19:19;98515.97;;;11.20;79.69
15646;BME280;7922;43.622;1.476;2024-03-02T10:21:52;98514.91;;;11.22;79.57
15646;BME280;7922;43.622;1.476;2024-03-02T10:24:19;98389.81;;;10.66;79.41
15646;BME280;7922;43.622;1.476;2024-03-02T10:26:48;98448.00;;;11.06;79.85
15646;BME280;7922;43.622;1.476;2024-03-02T10:29:14;98499.84;;;11.48;79.77
15646;BME280;7922;43.622;1.476;2024-03-02T10:31:42;98475.75;;;11.39;79.46
15646;BME280;7922;43.622;1.476;2024-03-02T10:34:09;98490.59;;;11.54;79.21
15646;BME280;7922;43.622;1.476;2024-03-02T10:36:35;98447.97;;;11.44;78.97
15646;BME280;7922;43.622;1.476;2024-03-02T10:39:04;98473.16;;;11.75;79.27
15646;BME280;7922;43.622;1.476;2024-03-02T10:41:34;98453.50;;;11.91;78.58
15646;BME280;7922;43.622;1.476;2024-03-02T10:44:02;98360.50;;;11.31;77.86
15646;BME280;7922;43.622;1.476;2024-03-02T10:46:29;98442.97;;;12.02;77.66
15646;BME280;7922;43.622;1.476;2024-03-02T10:48:59;98376.06;;;11.86;77.08
15646;BME280;7922;43.622;1.476;2024-03-02T10:51:25;98429.66;;;12.15;77.31
15646;BME280;7922;43.622;1.476;2024-03-02T10:53:52;98418.47;;;12.22;76.28
15646;BME280;7922;43.622;1.476;2024-03-02T10:56:22;98333.69;;;12.08;75.68
15646;BME280;7922;43.622;1.476;2024-03-02T10:58:59;98322.66;;;11.90;76.06
15646;BME280;7922;43.622;1.476;2024-03-02T11:01:26;98367.25;;;12.44;75.37
15646;BME280;7922;43.622;1.476;2024-03-02T11:03:54;98414.91;;;12.92;74.94
15646;BME280;7922;43.622;1.476;2024-03-02T11:06:21;98430.53;;;13.19;74.44
15646;BME280;7922;43.622;1.476;2024-03-02T11:08:49;98428.13;;;13.05;74.40
15646;BME280;7922;43.622;1.476;2024-03-02T11:11:22;98292.50;;;12.49;73.74
15646;BME280;7922;43.622;1.476;2024-03-02T11:13:52;98433.38;;;13.40;74.37
15646;BME280;7922;43.622;1.476;2024-03-02T11:18:58;98325.16;;;12.85;73.27
15646;BME280;7922;43.622;1.476;2024-03-02T11:21:24;98409.78;;;13.47;73.40
15646;BME280;7922;43.622;1.476;2024-03-02T11:23:50;98405.81;;;13.41;73.21
15646;BME280;7922;43.622;1.476;2024-03-02T11:28:44;98236.88;;;12.47;72.83
15646;BME280;7922;43.622;1.476;2024-03-02T11:31:09;98342.56;;;13.11;73.21
15646;BME280;7922;43.622;1.476;2024-03-02T11:33:34;98335.53;;;13.10;72.70
15646;BME280;7922;43.622;1.476;2024-03-02T11:36:00;98350.06;;;13.29;72.92
15646;BME280;7922;43.622;1.476;2024-03-02T11:38:28;98289.41;;;12.89;73.57
15646;BME280;7922;43.622;1.476;2024-03-02T11:40:53;98266.59;;;12.86;73.61
15646;BME280;7922;43.622;1.476;2024-03-02T11:43:20;98337.94;;;13.58;73.79
15646;BME280;7922;43.622;1.476;2024-03-02T11:45:45;98331.94;;;13.45;73.44
15646;BME280;7922;43.622;1.476;2024-03-02T11:48:15;98328.88;;;13.49;73.40
15646;BME280;7922;43.622;1.476;2024-03-02T11:50:48;98341.47;;;13.47;73.81
15646;BME280;7922;43.622;1.476;2024-03-02T11:53:14;98318.94;;;13.63;73.26
15646;BME280;7922;43.622;1.476;2024-03-02T11:55:40;98308.97;;;13.76;72.97
15646;BME280;7922;43.622;1.476;2024-03-02T11:58:06;98244.75;;;13.48;72.78
15646;BME280;7922;43.622;1.476;2024-03-02T12:00:31;98276.28;;;13.53;72.35
15646;BME280;7922;43.622;1.476;2024-03-02T12:03:15;98287.03;;;13.63;72.60
15646;BME280;7922;43.622;1.476;2024-03-02T12:05:40;98253.63;;;13.70;72.17
15646;BME280;7922;43.622;1.476;2024-03-02T12:08:07;98222.31;;;13.30;71.51
15646;BME280;7922;43.622;1.476;2024-03-02T12:10:34;98279.03;;;13.95;71.18
15646;BME280;7922;43.622;1.476;2024-03-02T12:13:01;98295.59;;;14.19;71.29
15646;BME280;7922;43.622;1.476;2024-03-02T12:15:29;98268.00;;;14.00;70.78
15646;BME280;7922;43.622;1.476;2024-03-02T12:17:56;98222.88;;;13.98;70.35
15646;BME280;7922;43.622;1.476;2024-03-02T12:20:22;98239.22;;;14.35;70.23
15646;BME280;7922;43.622;1.476;2024-03-02T12:22:48;98230.91;;;14.50;69.53
15646;BME280;7922;43.622;1.476;2024-03-02T12:25:15;98218.44;;;14.50;69.36
15646;BME280;7922;43.622;1.476;2024-03-02T12:27:41;98228.72;;;14.43;69.02
15646;BME280;7922;43.622;1.476;2024-03-02T12:30:06;98202.75;;;14.36;68.30
15646;BME280;7922;43.622;1.476;2024-03-02T12:32:32;98211.19;;;14.62;68.28
15646;BME280;7922;43.622;1.476;2024-03-02T12:34:57;98209.34;;;14.53;67.92
15646;BME280;7922;43.622;1.476;2024-03-02T12:37:22;98183.69;;;14.31;67.81
15646;BME280;7922;43.622;1.476;2024-03-02T12:39:48;98198.22;;;14.27;67.62
15646;BME280;7922;43.622;1.476;2024-03-02T12:42:13;98124.72;;;13.84;67.72
15646;BME280;7922;43.622;1.476;2024-03-02T12:44:39;98184.16;;;14.45;68.62
15646;BME280;7922;43.622;1.476;2024-03-02T12:47:05;98160.50;;;14.52;67.66
15646;BME280;7922;43.622;1.476;2024-03-02T12:49:30;98147.31;;;14.51;66.75
15646;BME280;7922;43.622;1.476;2024-03-02T12:51:55;98201.03;;;14.86;66.47
15646;BME280;7922;43.622;1.476;2024-03-02T12:54:22;98152.59;;;14.72;66.70
15646;BME280;7922;43.622;1.476;2024-03-02T12:56:47;98161.50;;;15.01;66.03
15646;BME280;7922;43.622;1.476;2024-03-02T12:59:20;98171.44;;;14.99;65.17
15646;BME280;7922;43.622;1.476;2024-03-02T13:01:52;98183.13;;;15.08;65.84
15646;BME280;7922;43.622;1.476;2024-03-02T13:04:24;98145.97;;;14.56;65.96
15646;BME280;7922;43.622;1.476;2024-03-02T13:06:50;98145.31;;;14.43;66.46
15646;BME280;7922;43.622;1.476;2024-03-02T13:09:16;98153.00;;;14.67;66.75
15646;BME280;7922;43.622;1.476;2024-03-02T13:11:41;98110.22;;;14.28;67.11
15646;BME280;7922;43.622;1.476;2024-03-02T13:14:07;98096.94;;;14.48;67.34
15646;BME280;7922;43.622;1.476;2024-03-02T13:16:38;98146.19;;;14.93;65.94
15646;BME280;7922;43.622;1.476;2024-03-02T13:19:03;98167.25;;;15.06;65.43
15646;BME280;7922;43.622;1.476;2024-03-02T13:21:29;98134.53;;;14.95;65.72